Time;durP1;ratioP1;P1;durP2;ratioP2;P2;SDS_P1;SDS_P2;PMS_P1;PMS_P2;Temp;Humidity;BMP_temperature;BMP_pressure;BME280_temperature;BME280_humidity;BME280_pressure;Samples;Min_cycle;Max_cycle;Signal;HPM_P1;HPM_P2
2022/08/25 00:00:47;;;;;;;10.20;3.75;;;;;;;22.18;67.02;100639.69;8357742;28;20051;-54
2022/08/25 00:04:48;;;;;;;5.82;3.70;;;;;;;22.21;67.04;100646.66;8327879;28;20037;-53
2022/08/25 00:08:49;;;;;;;7.07;4.23;;;;;;;22.18;67.22;100642.44;8329066;28;20490;-54
2022/08/25 00:12:49;;;;;;;12.80;4.53;;;;;;;22.13;67.34;100642.22;8329414;28;20261;-53
2022/08/25 00:16:50;;;;;;;6.47;4.20;;;;;;;22.09;67.62;100643.72;8343333;28;20025;-53
2022/08/25 00:20:51;;;;;;;9.70;4.88;;;;;;;22.03;67.79;100644.56;8328993;28;20394;-52
2022/08/25 00:24:51;;;;;;;9.32;4.40;;;;;;;21.92;67.96;100645.19;8324631;28;20034;-51
2022/08/25 00:28:52;;;;;;;9.75;4.53;;;;;;;21.79;67.85;100642.41;8328228;28;20104;-54
2022/08/25 00:32:52;;;;;;;7.65;4.22;;;;;;;21.79;67.55;100644.31;8322120;28;20494;-54
2022/08/25 00:36:53;;;;;;;6.13;3.72;;;;;;;21.70;67.71;100643.63;8325630;28;20041;-54
2022/08/25 00:41:10;;;;;;;8.48;4.10;;;;;;;21.64;67.75;100644.47;8326556;28;20125;-54
2022/08/25 00:45:10;;;;;;;5.30;4.05;;;;;;;21.62;68.10;100652.09;8323379;28;20064;-53
2022/08/25 00:49:35;;;;;;;7.80;3.45;;;;;;;21.62;68.13;100654.00;8329037;28;20029;-54
2022/08/25 00:53:36;;;;;;;7.28;3.45;;;;;;;21.60;67.44;100659.72;8330962;28;20029;-54
2022/08/25 00:57:42;;;;;;;7.15;4.05;;;;;;;21.48;67.98;100655.88;8330348;28;20049;-48
2022/08/25 01:01:42;;;;;;;7.82;3.60;;;;;;;21.35;68.35;100648.41;8330544;28;20048;-51
2022/08/25 01:05:44;;;;;;;5.32;4.07;;;;;;;21.09;68.66;100655.72;8330486;28;20038;-49
2022/08/25 01:09:48;;;;;;;5.97;4.28;;;;;;;20.82;68.82;100649.22;8331129;28;20030;-51
2022/08/25 01:13:55;;;;;;;4.90;3.80;;;;;;;20.77;68.87;100656.41;8329936;28;20030;-52
2022/08/25 01:17:57;;;;;;;8.68;4.22;;;;;;;20.69;69.71;100659.31;8330926;28;20033;-51
2022/08/25 01:21:58;;;;;;;8.45;3.65;;;;;;;20.84;69.09;100651.78;8353729;28;20041;-51
2022/08/25 01:26:06;;;;;;;6.97;3.83;;;;;;;20.36;72.41;100659.09;8347872;28;20434;-52
2022/08/25 01:30:07;;;;;;;11.55;3.97;;;;;;;20.70;70.02;100658.22;8365138;28;20033;-52
2022/08/25 01:34:11;;;;;;;9.02;4.05;;;;;;;20.60;70.57;100660.50;8362102;28;20051;-53
2022/08/25 01:38:11;;;;;;;6.68;3.40;;;;;;;20.72;69.41;100658.88;8316070;28;20045;-52
2022/08/25 01:42:52;;;;;;;7.25;3.60;;;;;;;20.49;69.94;100664.66;8337229;28;20063;-53
2022/08/25 01:46:53;;;;;;;5.45;3.50;;;;;;;20.51;69.89;100657.06;8370793;28;20398;-52
2022/08/25 01:50:53;;;;;;;7.10;3.63;;;;;;;20.53;70.17;100659.63;8329540;28;20080;-52
2022/08/25 01:54:54;;;;;;;7.93;3.43;;;;;;;20.52;69.85;100664.25;8329282;28;20029;-52
2022/08/25 01:58:55;;;;;;;8.98;3.70;;;;;;;20.57;69.50;100653.53;8323536;28;20248;-50
2022/08/25 02:02:56;;;;;;;7.47;4.93;;;;;;;20.58;69.51;100657.09;8348637;28;20056;-50
2022/08/25 02:07:02;;;;;;;8.77;3.40;;;;;;;20.78;68.52;100660.84;8360472;28;20033;-55
2022/08/25 02:11:03;;;;;;;7.13;3.20;;;;;;;20.79;68.39;100662.53;8338777;28;20048;-54
2022/08/25 02:15:07;;;;;;;5.22;3.42;;;;;;;20.71;68.76;100665.44;8345142;28;20037;-54
2022/08/25 02:19:11;;;;;;;7.68;3.95;;;;;;;20.38;70.52;100656.13;8344078;28;20049;-54
2022/08/25 02:23:11;;;;;;;6.65;4.13;;;;;;;20.15;71.08;100659.13;8329268;28;20449;-54
2022/08/25 02:27:11;;;;;;;7.03;3.78;;;;;;;19.94;71.68;100663.78;8330006;28;20029;-49
2022/08/25 02:31:13;;;;;;;10.37;4.20;;;;;;;19.68;72.18;100655.28;8332242;28;20407;-50
2022/08/25 02:35:13;;;;;;;8.60;4.03;;;;;;;19.59;72.61;100661.94;8331364;28;20295;-51
2022/08/25 02:39:14;;;;;;;11.27;3.83;;;;;;;19.57;72.58;100661.31;8337900;28;20033;-53
2022/08/25 02:43:14;;;;;;;5.78;3.83;;;;;;;19.45;72.85;100655.44;8360030;28;20029;-51
2022/08/25 02:47:15;;;;;;;5.03;4.07;;;;;;;19.55;72.76;100641.44;8356857;28;20102;-52
2022/08/25 02:51:15;;;;;;;7.60;4.28;;;;;;;19.67;72.27;100639.88;8311008;28;20297;-52
2022/08/25 02:55:16;;;;;;;7.45;4.20;;;;;;;19.54;73.01;100634.25;8336407;28;20033;-52
2022/08/25 02:59:18;;;;;;;6.50;4.15;;;;;;;19.34;74.17;100634.88;8334977;28;20040;-52
2022/08/25 03:03:19;;;;;;;6.43;4.32;;;;;;;19.43;73.37;100630.13;8325438;28;20045;-52
2022/08/25 03:07:20;;;;;;;8.00;4.28;;;;;;;19.51;72.73;100618.19;8324618;28;20047;-49
2022/08/25 03:11:21;;;;;;;6.55;4.13;;;;;;;19.37;74.08;100623.50;8326472;28;20038;-50
2022/08/25 03:15:24;;;;;;;8.18;4.82;;;;;;;19.11;75.06;100622.34;8327567;28;20112;-48
2022/08/25 03:19:25;;;;;;;9.00;4.45;;;;;;;19.21;74.84;100618.25;8326733;28;20056;-48
2022/08/25 03:23:25;;;;;;;8.00;4.55;;;;;;;19.19;74.68;100616.75;8325662;28;20033;-50
2022/08/25 03:27:29;;;;;;;7.80;4.57;;;;;;;19.05;75.18;100618.50;8316623;28;20029;-49
2022/08/25 03:31:31;;;;;;;8.32;5.28;;;;;;;18.88;76.02;100610.69;8329647;28;20502;-51
2022/08/25 03:35:31;;;;;;;8.57;4.95;;;;;;;18.83;76.01;100600.31;8325711;28;20040;-51
2022/08/25 03:39:31;;;;;;;8.98;4.93;;;;;;;19.05;74.96;100617.63;8340333;28;20104;-51
2022/08/25 03:43:32;;;;;;;7.30;4.65;;;;;;;19.10;74.81;100605.06;8325713;28;20038;-48
2022/08/25 03:47:33;;;;;;;9.15;4.70;;;;;;;19.15;74.63;100607.19;8325698;28;20026;-47
2022/08/25 03:51:39;;;;;;;8.52;4.82;;;;;;;19.07;75.43;100591.75;8324245;28;20039;-48
2022/08/25 03:55:40;;;;;;;8.63;5.25;;;;;;;18.79;76.83;100596.22;8344366;28;20405;-54
2022/08/25 03:59:41;;;;;;;10.35;5.40;;;;;;;18.63;76.92;100590.97;8335011;28;20499;-57
2022/08/25 04:03:41;;;;;;;10.15;5.53;;;;;;;18.55;76.94;100588.34;8318313;28;20410;-54
2022/08/25 04:07:42;;;;;;;9.45;5.57;;;;;;;18.49;77.63;100589.09;8329611;28;20056;-53
2022/08/25 04:11:42;;;;;;;7.50;4.95;;;;;;;18.52;77.71;100587.88;8325796;28;20044;-52
2022/08/25 04:15:43;;;;;;;9.52;5.47;;;;;;;18.72;76.94;100589.81;8321972;28;20625;-54
2022/08/25 04:19:44;;;;;;;7.22;5.43;;;;;;;18.43;78.58;100586.25;8339342;28;20477;-54
2022/08/25 04:23:47;;;;;;;7.97;5.72;;;;;;;18.36;78.74;100594.34;8314610;28;20164;-55
2022/08/25 04:27:47;;;;;;;7.75;5.13;;;;;;;18.45;78.24;100595.97;8319316;28;20034;-50
2022/08/25 04:31:49;;;;;;;9.97;5.57;;;;;;;18.50;77.75;100601.75;8326669;28;20052;-52
2022/08/25 04:35:50;;;;;;;7.38;5.50;;;;;;;18.40;77.88;100598.47;8319828;28;20280;-51
2022/08/25 04:39:50;;;;;;;12.90;5.55;;;;;;;18.37;77.87;100600.72;8321662;28;20096;-48
2022/08/25 04:43:51;;;;;;;6.78;5.93;;;;;;;18.39;77.71;100610.41;8338473;28;20033;-53
2022/08/25 04:47:53;;;;;;;8.15;6.03;;;;;;;18.37;78.45;100600.72;8351405;28;20586;-49
2022/08/25 04:51:55;;;;;;;7.55;5.53;;;;;;;18.22;79.70;100597.94;8335176;28;20045;-50
2022/08/25 04:55:55;;;;;;;11.55;5.68;;;;;;;18.32;79.57;100598.50;8341348;28;20030;-50
2022/08/25 04:59:55;;;;;;;7.73;5.30;;;;;;;18.50;78.67;100584.47;8321467;28;20045;-52
2022/08/25 05:03:58;;;;;;;10.43;5.10;;;;;;;18.51;78.91;100591.66;8337684;28;20358;-52
2022/08/25 05:07:59;;;;;;;9.30;4.93;;;;;;;18.73;77.19;100587.94;8355333;28;20029;-52
2022/08/25 05:12:01;;;;;;;8.23;5.23;;;;;;;18.82;77.26;100589.53;8361285;28;20056;-51
2022/08/25 05:16:02;;;;;;;7.25;5.28;;;;;;;19.08;77.09;100574.25;8361624;28;20303;-48
2022/08/25 05:20:03;;;;;;;9.10;5.25;;;;;;;19.17;76.77;100578.56;8350349;28;20499;-52
2022/08/25 05:24:04;;;;;;;6.93;5.35;;;;;;;19.28;76.48;100582.72;8358828;28;20434;-52
2022/08/25 05:28:05;;;;;;;7.85;4.75;;;;;;;19.47;75.73;100573.84;8365591;28;20041;-52
2022/08/25 05:32:05;;;;;;;10.20;5.25;;;;;;;19.80;74.48;100574.13;8359175;28;20036;-52
2022/08/25 05:36:08;;;;;;;8.38;4.70;;;;;;;19.87;74.04;100569.53;8357501;28;20032;-51
2022/08/25 05:40:09;;;;;;;8.77;4.43;;;;;;;20.19;72.58;100568.97;8345510;28;20120;-51
2022/08/25 05:44:11;;;;;;;10.52;4.28;;;;;;;20.21;72.42;100564.97;8355522;28;20037;-51
2022/08/25 05:48:11;;;;;;;8.85;4.32;;;;;;;20.20;72.44;100559.69;8358573;28;20406;-51
2022/08/25 05:52:12;;;;;;;11.23;4.32;;;;;;;20.53;71.91;100557.97;8341019;28;20029;-52
2022/08/25 05:56:13;;;;;;;6.20;4.00;;;;;;;20.80;70.57;100565.28;8340551;28;20053;-52
2022/08/25 06:00:13;;;;;;;7.32;4.10;;;;;;;21.06;69.36;100568.16;8363074;28;20379;-52
2022/08/25 06:04:16;;;;;;;8.82;3.90;;;;;;;21.32;68.74;100568.25;8389638;28;20028;-52
2022/08/25 06:08:16;;;;;;;19.08;5.05;;;;;;;21.42;68.81;100556.81;8389499;28;20810;-51
2022/08/25 06:12:17;;;;;;;14.68;5.13;;;;;;;21.40;68.59;100551.50;8389271;28;20459;-52
2022/08/25 06:16:18;;;;;;;14.73;4.90;;;;;;;21.64;68.56;100561.06;8388755;28;20056;-49
2022/08/25 06:20:22;;;;;;;16.27;5.03;;;;;;;21.78;68.89;100574.66;8362943;28;20506;-49
2022/08/25 06:24:23;;;;;;;;;;;;;;;22.09;69.11;100569.34;8339949;28;20294;-52
2022/08/25 06:28:24;;;;;;;19.05;5.05;;;;;;;22.42;67.15;100572.88;8356877;28;20267;-52
2022/08/25 06:32:25;;;;;;;12.40;5.00;;;;;;;22.46;67.15;100568.66;8357344;28;20048;-51
2022/08/25 06:36:25;;;;;;;18.80;4.72;;;;;;;22.61;66.73;100572.03;8356850;28;20552;-49
2022/08/25 06:40:25;;;;;;;11.48;4.05;;;;;;;23.24;65.97;100572.19;8356347;28;20040;-52
2022/08/25 06:44:27;;;;;;;9.73;3.70;;;;;;;23.30;65.11;100572.16;8355567;28;20098;-49
2022/08/25 06:48:27;;;;;;;13.55;3.92;;;;;;;23.66;64.44;100577.84;8356668;28;20103;-51
2022/08/25 06:52:28;;;;;;;13.05;3.78;;;;;;;24.02;63.63;100585.44;8356270;28;20037;-51
2022/08/25 06:56:28;;;;;;;13.85;3.58;;;;;;;24.23;62.83;100585.03;8356052;28;20037;-49
2022/08/25 07:00:29;;;;;;;8.82;3.30;;;;;;;24.46;62.66;100566.69;8370291;28;20041;-50
2022/08/25 07:04:31;;;;;;;12.90;3.25;;;;;;;24.89;62.33;100569.44;8356001;28;20501;-49
2022/08/25 07:08:32;;;;;;;18.83;3.15;;;;;;;25.11;60.79;100573.41;8356211;28;20033;-48
2022/08/25 07:12:33;;;;;;;9.60;3.40;;;;;;;25.36;60.69;100568.59;8355863;28;20047;-49
2022/08/25 07:16:34;;;;;;;6.15;2.78;;;;;;;25.61;58.67;100558.19;8355609;28;20028;-48
2022/08/25 07:20:36;;;;;;;16.45;3.88;;;;;;;25.63;58.41;100578.19;8355492;28;20112;-51
2022/08/25 07:24:36;;;;;;;12.35;3.22;;;;;;;25.61;58.68;100563.72;8337624;28;20033;-48
2022/08/25 07:28:37;;;;;;;8.88;3.03;;;;;;;26.06;57.67;100562.16;8355442;28;20052;-49
2022/08/25 07:32:37;;;;;;;6.00;2.42;;;;;;;26.30;56.44;100571.31;8355217;28;20379;-49
2022/08/25 07:36:38;;;;;;;6.85;2.40;;;;;;;26.52;56.47;100567.69;8355119;28;20490;-49
2022/08/25 07:40:38;;;;;;;11.27;2.30;;;;;;;26.85;54.72;100561.50;8355066;28;20068;-48
2022/08/25 07:44:39;;;;;;;10.70;2.55;;;;;;;26.95;54.55;100558.94;8354574;28;20060;-48
2022/08/25 07:48:40;;;;;;;25.00;2.67;;;;;;;27.29;53.54;100557.16;8354858;28;20032;-54
2022/08/25 07:52:41;;;;;;;6.40;2.80;;;;;;;27.35;52.88;100561.72;8337272;28;20061;-54
2022/08/25 07:56:42;;;;;;;8.43;2.28;;;;;;;27.28;52.67;100566.56;8336530;28;20041;-54
2022/08/25 08:00:46;;;;;;;5.15;2.03;;;;;;;27.62;52.36;100576.66;8353838;28;20037;-53
2022/08/25 08:04:49;;;;;;;4.90;2.08;;;;;;;27.79;51.78;100560.84;8382917;28;20401;-54
2022/08/25 08:08:52;;;;;;;3.67;2.50;;;;;;;27.95;51.67;100558.13;8366341;28;20052;-53
2022/08/25 08:12:53;;;;;;;9.95;3.20;;;;;;;28.05;51.42;100546.31;8365230;28;20029;-52
2022/08/25 08:16:53;;;;;;;7.72;2.20;;;;;;;28.19;51.42;100553.22;8335954;28;20052;-54
2022/08/25 08:20:54;;;;;;;8.65;2.47;;;;;;;28.40;51.34;100524.59;8362615;28;20083;-50
2022/08/25 08:24:54;;;;;;;5.55;1.90;;;;;;;28.53;51.43;100538.16;8353744;28;20041;-54
2022/08/25 08:28:55;;;;;;;10.32;2.20;;;;;;;29.20;50.18;100536.84;8354419;28;20041;-54
2022/08/25 08:32:56;;;;;;;4.45;2.10;;;;;;;29.15;51.12;100536.75;8345707;28;20115;-54
2022/08/25 08:36:58;;;;;;;8.27;2.57;;;;;;;29.04;50.95;100526.63;8354916;28;20025;-55
2022/08/25 08:42:18;;;;;;;5.43;2.60;;;;;;;29.14;51.21;100523.09;8353922;28;20275;-53
2022/08/25 08:45:35;;;;;;;15.17;2.43;;;;;;;29.47;51.34;100526.53;8359326;28;20040;-51
2022/08/25 08:50:04;;;;;;;8.48;2.45;;;;;;;29.50;51.20;100512.06;8351998;28;20127;-51
2022/08/25 08:54:17;;;;;;;6.10;2.42;;;;;;;29.68;51.22;100516.44;8353136;28;20120;-52
2022/08/25 08:58:23;;;;;;;4.63;2.50;;;;;;;29.74;51.19;100513.44;8353557;28;20061;-51
2022/08/25 09:02:31;;;;;;;5.28;2.20;;;;;;;29.90;51.23;100506.88;8353769;28;20387;-51
2022/08/25 09:06:39;;;;;;;3.67;2.20;;;;;;;30.18;51.23;100503.75;8352687;28;20382;-50
2022/08/25 09:10:54;;;;;;;6.97;2.45;;;;;;;30.19;50.64;100487.88;8360037;28;20032;-52
2022/08/25 09:19:32;;;;;;;6.40;2.70;;;;;;;30.76;50.25;100501.88;8391874;27;20409;-50
2022/08/25 09:23:52;;;;;;;4.55;2.65;;;;;;;30.82;50.32;100489.59;8379035;28;20036;-51
2022/08/25 09:28:18;;;;;;;8.82;2.38;;;;;;;30.84;49.65;100485.44;8376601;28;20116;-51
2022/08/25 09:32:20;;;;;;;4.13;2.35;;;;;;;30.98;50.02;100488.56;8379867;28;20053;-50
2022/08/25 09:36:22;;;;;;;3.13;2.72;;;;;;;30.99;50.07;100496.66;8382603;28;20043;-51
2022/08/25 09:40:24;;;;;;;5.43;2.55;;;;;;;31.79;48.88;100487.56;8380997;28;20434;-53
2022/08/25 09:44:33;;;;;;;3.22;2.20;;;;;;;32.98;46.83;100477.22;8382224;28;20488;-50
2022/08/25 09:48:52;;;;;;;4.07;2.95;;;;;;;34.57;44.97;100476.19;8361534;28;20037;-52
2022/08/25 09:52:52;;;;;;;5.05;2.00;;;;;;;35.84;42.83;100485.38;8349426;28;20112;-53
2022/08/25 09:56:56;;;;;;;6.87;2.23;;;;;;;36.38;42.41;100479.88;8348714;28;20524;-54
2022/08/25 10:01:10;;;;;;;6.90;2.13;;;;;;;36.89;40.71;100480.50;8361452;28;20775;-53
2022/08/25 10:05:21;;;;;;;8.18;2.30;;;;;;;38.18;39.01;100474.03;8370319;28;20465;-57
2022/08/25 10:09:29;;;;;;;5.85;2.08;;;;;;;38.50;39.12;100463.22;8377610;28;20032;-50
2022/08/25 10:13:37;;;;;;;3.95;2.50;;;;;;;37.31;40.29;100466.03;8374316;28;20057;-53
2022/08/25 10:17:38;;;;;;;2.45;2.20;;;;;;;38.43;38.82;100450.72;8364654;28;20068;-51
2022/08/25 10:21:41;;;;;;;6.60;2.10;;;;;;;39.12;37.38;100455.47;8370982;28;20055;-49
2022/08/25 10:25:50;;;;;;;3.72;2.08;;;;;;;38.54;37.86;100443.66;8372948;28;20064;-52
2022/08/25 10:30:30;;;;;;;4.50;1.70;;;;;;;39.13;37.37;100445.78;8359261;28;20040;-52
2022/08/25 10:34:47;;;;;;;2.60;1.83;;;;;;;38.21;37.68;100445.13;8355112;28;20124;-49
2022/08/25 10:38:55;;;;;;;2.13;1.50;;;;;;;39.01;36.82;100428.63;8359101;28;20102;-51
2022/08/25 10:43:06;;;;;;;5.40;1.80;;;;;;;39.00;36.24;100435.47;8350796;28;20057;-54
2022/08/25 10:47:41;;;;;;;7.45;1.90;;;;;;;38.72;36.92;100417.09;8351338;28;20037;-54
2022/08/25 10:52:15;;;;;;;2.25;1.90;;;;;;;38.47;36.45;100414.97;8356922;28;20041;-51
2022/08/25 10:56:21;;;;;;;4.97;1.88;;;;;;;39.18;34.81;100411.69;8353232;28;20063;-51
2022/08/25 11:00:30;;;;;;;5.03;1.55;;;;;;;39.82;34.21;100410.66;8357620;28;20044;-53
2022/08/25 11:04:55;;;;;;;1.92;1.48;;;;;;;40.00;34.39;100415.09;8336024;28;20572;-54
2022/08/25 11:09:00;;;;;;;3.85;1.83;;;;;;;38.55;35.31;100411.38;8326171;28;20033;-53
2022/08/25 11:13:09;;;;;;;3.30;1.45;;;;;;;39.93;33.97;100403.47;8347444;28;20040;-53
2022/08/25 11:17:17;;;;;;;4.28;1.60;;;;;;;40.38;34.05;100392.47;8354477;28;20410;-51
2022/08/25 11:21:25;;;;;;;4.25;1.50;;;;;;;41.08;32.82;100388.91;8358077;28;20033;-52
2022/08/25 11:25:33;;;;;;;5.53;1.80;;;;;;;41.96;32.12;100393.94;8357428;28;20398;-52
2022/08/25 11:29:36;;;;;;;5.10;2.00;;;;;;;39.90;33.51;100381.47;8350288;28;20116;-53
2022/08/25 11:33:38;;;;;;;4.25;1.30;;;;;;;39.78;33.55;100392.66;8356840;28;20116;-51
2022/08/25 11:37:52;;;;;;;3.30;1.27;;;;;;;39.97;33.14;100390.28;8355721;28;20072;-54
2022/08/25 11:42:32;;;;;;;3.15;1.38;;;;;;;40.44;32.94;100374.94;8352619;28;20044;-54
2022/08/25 11:46:51;;;;;;;3.83;1.27;;;;;;;40.83;32.10;100371.69;8354027;28;20090;-54
2022/08/25 11:51:03;;;;;;;2.60;1.40;;;;;;;40.17;32.53;100372.53;8352372;28;20045;-50
2022/08/25 11:55:28;;;;;;;3.47;1.43;;;;;;;40.92;32.05;100363.94;8352575;28;20035;-53
2022/08/25 11:59:51;;;;;;;3.47;1.33;;;;;;;38.36;33.78;100354.28;8353574;28;20466;-54
2022/08/25 12:03:53;;;;;;;5.05;1.73;;;;;;;36.85;35.38;100352.63;8354532;28;20047;-55
2022/08/25 12:12:31;;;;;;;3.22;1.65;;;;;;;35.31;36.57;100340.50;8354321;28;20037;-54
2022/08/25 12:25:23;;;;;;;5.10;2.22;;;;;;;34.52;39.94;100318.97;8400651;27;20445;-55
2022/08/25 12:29:44;;;;;;;4.55;2.15;;;;;;;34.23;40.40;100322.97;8377728;27;20532;-54
2022/08/25 12:34:09;;;;;;;6.72;2.17;;;;;;;33.93;40.82;100319.41;8399026;27;20543;-55
2022/08/25 12:38:15;;;;;;;5.03;2.03;;;;;;;34.00;40.61;100307.00;8401873;28;20051;-54
2022/08/25 12:42:32;;;;;;;6.32;2.30;;;;;;;34.11;40.73;100302.91;8413689;28;20040;-53
2022/08/25 12:46:36;;;;;;;5.85;2.38;;;;;;;33.72;40.50;100312.34;8407342;28;20056;-54
2022/08/25 12:50:41;;;;;;;3.17;2.03;;;;;;;33.52;40.65;100312.56;8412542;28;20036;-55
2022/08/25 12:55:02;;;;;;;4.43;2.10;;;;;;;33.63;40.29;100300.09;8410288;28;20122;-54
2022/08/25 12:59:15;;;;;;;3.88;1.90;;;;;;;33.10;40.47;100301.16;8406264;28;20039;-54
2022/08/25 13:03:44;;;;;;;3.60;1.73;;;;;;;33.37;40.18;100303.47;8413742;28;20466;-54
2022/08/25 13:08:18;;;;;;;3.55;1.70;;;;;;;33.15;40.11;100289.88;8412164;28;20044;-55
2022/08/25 13:12:30;;;;;;;6.05;1.85;;;;;;;33.75;38.19;100283.69;8413552;28;20040;-55
2022/08/25 13:16:32;;;;;;;3.67;1.85;;;;;;;33.71;39.44;100293.84;8411276;28;20040;-49
2022/08/25 13:20:33;;;;;;;3.42;1.90;;;;;;;33.05;39.22;100283.56;8412269;28;20047;-50
2022/08/25 13:24:39;;;;;;;3.53;1.52;;;;;;;33.42;39.83;100266.97;8411100;28;20135;-49
2022/08/25 13:28:41;;;;;;;5.25;2.20;;;;;;;33.76;38.54;100262.91;8398727;28;20050;-52
2022/08/25 13:32:41;;;;;;;2.60;1.80;;;;;;;33.40;38.78;100263.63;8408159;28;20166;-49
2022/08/25 13:37:46;;;;;;;4.00;2.05;;;;;;;33.46;38.37;100257.66;8381347;28;20048;-49
2022/08/25 13:41:08;;;;;;;4.78;1.88;;;;;;;34.18;38.09;100252.88;8376934;28;20087;-49
2022/08/25 13:45:15;;;;;;;4.32;1.95;;;;;;;34.10;38.11;100261.94;8373090;28;20123;-51
2022/08/25 13:49:25;;;;;;;2.92;1.60;;;;;;;33.50;38.53;100258.72;8385208;28;20036;-48
2022/08/25 13:53:28;;;;;;;3.15;1.65;;;;;;;33.74;38.20;100253.13;8389420;28;20039;-52
2022/08/25 13:57:29;;;;;;;2.53;1.50;;;;;;;33.57;38.49;100248.00;8381947;28;20048;-49
2022/08/25 14:01:33;;;;;;;5.47;2.00;;;;;;;33.56;38.77;100243.53;8388929;28;20135;-48
2022/08/25 14:05:41;;;;;;;4.05;1.77;;;;;;;33.43;37.85;100241.44;8387798;28;20418;-48
2022/08/25 14:09:51;;;;;;;3.22;1.70;;;;;;;33.53;38.23;100234.84;8386426;28;20510;-47
2022/08/25 14:14:00;;;;;;;5.40;1.77;;;;;;;33.38;38.03;100235.88;8380956;28;20055;-48
2022/08/25 14:18:06;;;;;;;2.30;1.67;;;;;;;33.77;37.90;100230.09;8384056;28;20045;-53
2022/08/25 14:22:06;;;;;;;1.67;1.58;;;;;;;33.84;38.42;100225.78;8379579;28;20068;-50
2022/08/25 14:26:07;;;;;;;1.98;1.77;;;;;;;33.69;37.90;100225.97;8386157;28;20036;-52
2022/08/25 14:30:08;;;;;;;2.10;1.90;;;;;;;33.76;38.33;100215.22;8379619;28;20032;-52
2022/08/25 14:34:14;;;;;;;6.47;2.10;;;;;;;34.01;37.73;100224.47;8380415;28;20067;-52
2022/08/25 14:38:16;;;;;;;4.43;2.15;;;;;;;33.71;38.89;100226.50;8378296;28;20402;-49
2022/08/25 14:42:16;;;;;;;2.47;2.10;;;;;;;33.47;39.27;100214.47;8385015;28;20090;-49
2022/08/25 14:46:20;;;;;;;4.13;2.33;;;;;;;33.58;39.52;100210.41;8382475;28;20086;-55
2022/08/25 14:50:21;;;;;;;7.22;2.30;;;;;;;33.52;39.93;100211.59;8386360;28;20279;-54
2022/08/25 14:54:25;;;;;;;3.17;2.22;;;;;;;33.53;39.50;100206.81;8383939;28;20052;-55
2022/08/25 14:58:26;;;;;;;2.95;2.22;;;;;;;33.77;39.19;100202.88;8385774;28;20051;-55
2022/08/25 15:02:28;;;;;;;4.82;2.40;;;;;;;33.59;39.99;100206.47;8380278;28;20066;-54
2022/08/25 15:06:28;;;;;;;4.38;1.92;;;;;;;33.42;39.11;100200.50;8385496;28;20045;-55
2022/08/25 15:10:29;;;;;;;3.65;2.17;;;;;;;33.71;39.56;100192.84;8381427;28;20486;-55
2022/08/25 15:14:30;;;;;;;4.85;2.10;;;;;;;33.52;39.29;100194.78;8373204;28;20048;-54
2022/08/25 15:18:30;;;;;;;2.38;2.17;;;;;;;33.19;40.03;100195.69;8383798;28;20040;-54
2022/08/25 15:22:31;;;;;;;3.70;2.47;;;;;;;33.31;39.37;100198.91;8384292;28;20413;-54
2022/08/25 15:26:38;;;;;;;2.30;2.10;;;;;;;33.35;39.69;100188.78;8374498;28;20102;-54
2022/08/25 15:30:39;;;;;;;3.83;2.20;;;;;;;33.28;39.43;100182.69;8373339;28;20089;-54
2022/08/25 15:34:39;;;;;;;5.13;2.30;;;;;;;33.24;39.69;100187.19;8384506;28;20037;-51
2022/08/25 15:38:42;;;;;;;4.03;2.45;;;;;;;33.29;39.57;100187.16;8379235;28;20510;-54
2022/08/25 15:42:43;;;;;;;2.20;2.00;;;;;;;33.23;39.35;100179.94;8383909;28;20045;-54
2022/08/25 15:46:45;;;;;;;3.75;2.47;;;;;;;33.30;39.70;100180.41;8383337;28;20036;-54
2022/08/25 15:50:46;;;;;;;4.70;2.40;;;;;;;33.28;39.74;100181.84;8384174;28;20579;-54
2022/08/25 15:54:47;;;;;;;3.42;2.30;;;;;;;33.40;39.76;100174.75;8373410;28;20601;-55
2022/08/25 15:58:47;;;;;;;5.15;2.55;;;;;;;33.35;39.28;100171.09;8363036;28;20044;-51
2022/08/25 16:02:48;;;;;;;7.70;2.33;;;;;;;33.31;39.23;100164.44;8377770;28;20067;-52
2022/08/25 16:06:49;;;;;;;2.83;2.50;;;;;;;33.34;39.33;100175.91;8372184;28;20033;-54
2022/08/25 16:10:50;;;;;;;3.47;2.20;;;;;;;33.18;39.82;100176.38;8384056;28;20040;-55
2022/08/25 16:14:52;;;;;;;3.53;1.98;;;;;;;32.99;39.59;100173.47;8368141;28;20036;-54
2022/08/25 16:18:53;;;;;;;4.47;2.20;;;;;;;32.99;40.02;100167.88;8380482;28;20459;-53
2022/08/25 16:22:54;;;;;;;5.70;2.53;;;;;;;32.90;40.08;100164.03;8373783;28;20112;-54
2022/08/25 16:26:59;;;;;;;3.30;2.53;;;;;;;32.99;39.89;100173.47;8373083;28;20033;-55
2022/08/25 16:30:59;;;;;;;3.15;2.05;;;;;;;32.82;39.76;100167.47;8372121;28;20055;-54
2022/08/25 16:35:00;;;;;;;5.22;2.63;;;;;;;32.83;39.86;100157.91;8353197;28;20091;-53
2022/08/25 16:39:00;;;;;;;6.10;2.78;;;;;;;32.83;39.86;100157.91;8328461;28;20045;-52
2022/08/25 16:43:01;;;;;;;4.28;2.00;;;;;;;32.81;39.82;100154.56;8343069;28;20051;-53
2022/08/25 16:47:01;;;;;;;2.40;2.20;;;;;;;32.68;40.57;100166.47;8374080;28;20093;-53
2022/08/25 16:51:07;;;;;;;5.75;2.95;;;;;;;32.56;40.83;100163.22;8356305;28;20044;-53
2022/08/25 16:55:15;;;;;;;4.25;2.47;;;;;;;32.55;40.61;100167.16;8341000;28;20056;-54
2022/08/25 16:59:16;;;;;;;2.75;2.22;;;;;;;32.55;40.92;100166.31;8364597;28;20063;-55
2022/08/25 17:03:16;;;;;;;4.85;1.80;;;;;;;32.66;40.44;100163.13;8356905;28;20088;-54
2022/08/25 17:07:16;;;;;;;3.23;2.33;;;;;;;32.75;40.71;100172.53;8343670;28;20047;-53
2022/08/25 17:11:21;;;;;;;5.45;2.40;;;;;;;32.61;40.10;100171.56;8371996;28;20651;-53
2022/08/25 17:15:22;;;;;;;2.60;2.03;;;;;;;32.48;40.06;100155.47;8365656;28;20044;-52
2022/08/25 17:19:24;;;;;;;4.18;2.10;;;;;;;32.44;39.67;100157.16;8339450;28;20284;-52
2022/08/25 17:23:25;;;;;;;2.75;2.10;;;;;;;32.35;39.75;100160.88;8335500;28;20037;-51
2022/08/25 17:27:25;;;;;;;5.07;2.33;;;;;;;32.17;41.00;100160.41;8344199;28;20068;-53
2022/08/25 17:31:27;;;;;;;5.67;2.60;;;;;;;32.09;40.84;100157.41;8351320;28;20177;-49
2022/08/25 17:35:28;;;;;;;2.95;2.20;;;;;;;31.99;41.47;100165.88;8359216;28;20299;-51
2022/08/25 17:39:28;;;;;;;3.22;2.30;;;;;;;31.82;41.24;100169.03;8387232;28;20040;-51
2022/08/25 17:43:30;;;;;;;4.45;2.47;;;;;;;31.70;41.18;100165.72;8387278;28;20048;-53
2022/08/25 17:47:30;;;;;;;4.22;2.60;;;;;;;31.54;41.55;100166.91;8353708;28;20124;-54
2022/08/25 17:51:31;;;;;;;3.70;2.38;;;;;;;31.48;41.63;100168.06;8357832;28;20197;-53
2022/08/25 17:55:32;;;;;;;6.70;2.45;;;;;;;31.38;42.15;100170.03;8368140;28;20116;-53
2022/08/25 17:59:33;;;;;;;2.90;2.30;;;;;;;31.24;42.45;100174.53;8376719;28;20040;-52
2022/08/25 18:03:34;;;;;;;4.72;2.13;;;;;;;30.82;43.93;100174.88;8387892;28;20491;-51
2022/08/25 18:07:35;;;;;;;2.90;2.25;;;;;;;30.68;43.74;100172.94;8343445;28;20178;-48
2022/08/25 18:11:35;;;;;;;2.65;2.20;;;;;;;30.36;46.71;100182.41;8363644;28;20051;-49
2022/08/25 18:15:38;;;;;;;2.78;2.00;;;;;;;30.46;43.93;100178.78;8387056;28;20032;-49
2022/08/25 18:19:39;;;;;;;9.02;2.55;;;;;;;30.05;45.79;100182.63;8385768;28;20044;-51
2022/08/25 18:23:41;;;;;;;4.88;2.80;;;;;;;29.22;50.46;100180.88;8386605;28;20381;-49
2022/08/25 18:27:41;;;;;;;4.88;2.47;;;;;;;28.54;50.96;100184.56;8385803;28;20537;-52
2022/08/25 18:31:43;;;;;;;3.53;2.63;;;;;;;28.62;52.00;100177.66;8384433;28;20423;-49
2022/08/25 18:35:44;;;;;;;4.50;2.20;;;;;;;28.44;49.82;100183.59;8376914;28;20058;-48
2022/08/25 18:40:45;;;;;;;4.82;2.92;;;;;;;27.84;54.67;100194.09;8373594;28;20051;-48
2022/08/25 18:44:05;;;;;;;3.20;2.90;;;;;;;27.58;55.43;100189.31;8381402;28;20090;-48
2022/08/25 18:48:06;;;;;;;6.70;2.83;;;;;;;27.37;56.63;100192.94;8384210;28;20120;-54
2022/08/25 18:52:06;;;;;;;3.90;2.90;;;;;;;27.23;55.97;100191.63;8377686;28;20048;-52
2022/08/25 18:56:08;;;;;;;3.83;2.75;;;;;;;27.35;54.89;100189.59;8386897;28;20497;-54
2022/08/25 19:00:11;;;;;;;4.10;2.22;;;;;;;27.29;54.89;100190.63;8382384;28;20577;-53
2022/08/25 19:04:13;;;;;;;5.07;2.65;;;;;;;27.06;54.95;100196.34;8383055;28;20506;-53
2022/08/25 19:08:16;;;;;;;10.90;3.78;;;;;;;26.96;58.47;100187.88;8367182;28;20047;-52
2022/08/25 19:12:16;;;;;;;5.43;3.83;;;;;;;27.07;56.24;100192.50;8349513;28;20163;-53